Weather

Rainfall Maps have ended for the season and will begin again on June 1st.

*Note: Some stations are located near irrigated fields and may also report irrigation

Forrest Carberry Carberry North Wawanesa Glenboro Glenora Treherne Gladstone Portage East High Bluff Elm Creek Carman Winkler Kuhl Farm Morris St.Adolphe Steinbach Selkirk Macdonald Shilo Rivers Somerset Reinland Altona Starbuck St.Pierre Winkler




Shilo - Historical Weather Data
Date Max Temp (°C) Min Temp (°C) Avg Temp (°C) Rain (mm) Avg RH (%)
4/25/2018 20.4 3.5 11.7 0.0 44.2
4/24/2018 13.6 -0.8 6.4 0.0 55.7
4/23/2018 17.9 4.9 10.5 0.0 52.6
4/22/2018 17.9 6.1 11.5 0.0 57.1
4/21/2018 17.9 0.8 9.7 0.0 64.9
4/20/2018 14.9 -0.1 7.6 0.0 65.5
4/19/2018 14.7 -1.7 6.5 0.0 62.5
4/18/2018 11.7 -3.2 4.3 0.0 53.4
4/17/2018 11.5 -4.2 2.9 0.0 56.9
4/16/2018 8.2 -7.2 0.7 0.0 62.5
4/15/2018 5.6 -7.2 -1.0 0.0 56.3
4/14/2018 3.5 -8.7 -2.6 0.0 59.2
4/13/2018 -0.1 -9.5 -4.7 0.0 64.5
4/12/2018 1.1 -5.5 -2.1 0.0 78.3
4/11/2018 3.6 -5.6 -0.6 0.0 71.6
4/10/2018 6.5 -4.2 0.4 0.0 68.2
4/9/2018 4.7 -11.7 -3.5 0.0 66.8
4/8/2018 -0.1 -14.6 -7.5 0.0 64.1
4/7/2018 -2.9 -13.8 -8.3 0.0 62.2
4/6/2018 -3.3 -17.3 -10.5 0.0 65.3
4/5/2018 -0.4 -12.2 -6.2 0.0 61.7
4/4/2018 1.1 -9.3 -4.7 0.0 61.9
4/3/2018 -0.5 -17.4 -9.6 0.0 57.5
4/2/2018 -8.8 -17.8 -13.7 0.0 62.7
4/1/2018 1.2 -12.7 -6.3 0.0 56.6
3/31/2018 -6.2 -15.2 -10.4 0.0 57.1
3/30/2018 -7.3 -17.1 -12.0 0.0 61.4
3/29/2018 -3.6 -14.8 -8.5 0.0 67.4
3/28/2018 3.1 -7.4 -3.5 0.0 74.8
3/27/2018 8.9 -3.7 2.2 0.0 76.1
3/26/2018 2.0 -2.3 0.0 0.0 89.1
3/25/2018 2.4 -1.3 0.4 0.0 84.3
3/24/2018 -0.2 -3.6 -2.0 0.0 86.6
3/23/2018 3.8 -7.4 -0.9 0.0 74.5
3/22/2018 3.9 -3.4 -0.1 0.0 91.5
3/21/2018 0.4 -4.9 -2.0 0.0 92.6
3/20/2018 -1.9 -6.6 -4.5 0.0 80.8
3/19/2018 -0.7 -6.5 -3.2 0.0 73.0
3/18/2018 4.3 -1.0 0.5 0.0 80.0
3/17/2018 3.8 -10.6 -3.2 0.0 64.8
3/16/2018 1.2 -14.8 -7.6 0.0 74.1
3/15/2018 -4.5 -14.6 -9.6 0.0 75.1
3/14/2018 3.2 -8.3 -3.0 0.0 73.1
3/13/2018 2.3 -12.9 -4.7 0.0 72.7
3/12/2018 1.2 -8.7 -4.5 0.0 69.1
3/11/2018 4.1 -9.5 -2.8 0.0 73.6
3/10/2018 -2.8 -11.7 -6.0 0.0 86.2
3/9/2018 -7.2 -16.9 -12.1 0.0 87.5
3/8/2018 -4.3 -16.0 -10.7 0.0 87.0
3/7/2018 -3.9 -15.8 -9.7 0.0 79.3
3/6/2018 -2.9 -12.7 -7.4 0.0 84.4
3/5/2018 -0.4 -2.9 -1.4 0.0 98.2
3/4/2018 3.7 -0.5 1.6 0.0 78.7
3/3/2018 4.3 -10.0 -1.5 0.0 71.7
3/2/2018 -1.1 -10.9 -5.3 0.0 78.8
3/1/2018 7.8 -8.7 -1.5 0.0 66.6
2/28/2018 6.7 -9.3 -3.1 0.0 72.5
2/27/2018 1.9 -11.0 -4.6 0.0 70.3
2/26/2018 6.4 -14.7 -5.0 0.0 73.8
2/25/2018 2.1 -12.8 -6.7 0.0 78.2
2/24/2018 -1.6 -15.9 -9.5 0.0 78.3
2/23/2018 -3.3 -17.0 -11.5 0.0 70.6
2/22/2018 -5.1 -20.6 -13.5 0.0 73.1
2/21/2018 -8.5 -18.4 -14.3 0.0 65.4
2/20/2018 -7.4 -16.5 -13.2 0.0 68.4
2/19/2018 -14.3 -23.1 -18.0 0.0 65.5
2/18/2018 -8.3 -18.5 -14.5 0.0 71.7
2/17/2018 -5.6 -15.1 -11.1 0.0 65.1
2/16/2018 -7.0 -18.9 -12.8 0.0 69.8
2/15/2018 -11.1 -22.2 -18.3 0.0 66.3
2/14/2018 2.5 -10.4 -3.1 0.0 76.4
2/13/2018 -3.8 -19.4 -9.9 0.0 68.6
2/12/2018 -14.7 -26.6 -21.2 0.0 60.8
2/11/2018 -13.8 -24.4 -17.2 0.0 71.1
2/10/2018 -9.2 -19.9 -15.1 0.0 67.2
2/9/2018 -11.3 -24.3 -18.0 0.0 65.0
2/8/2018 -11.5 -23.6 -18.6 0.0 67.8
2/7/2018 -10.3 -22.4 -17.5 0.0 68.2
2/6/2018 -12.2 -23.0 -18.3 0.0 71.0
2/5/2018 -12.6 -22.6 -18.1 0.0 68.7
2/4/2018 -14.4 -26.5 -19.9 0.0 63.3
2/3/2018 -19.6 -26.5 -22.3 0.0 73.6
2/2/2018 -15.1 -23.6 -19.4 0.0 77.2
2/1/2018 -14.3 -24.1 -20.6 0.0 67.9
1/31/2018 -12.8 -20.8 -16.8 0.0 64.0
1/30/2018 0.6 -21.0 -11.5 0.0 79.0
1/29/2018 -15.1 -21.5 -18.9 0.0 75.8
1/28/2018 -16.8 -22.4 -20.2 0.0 73.8
1/27/2018 -8.3 -19.9 -14.7 0.0 80.1
1/26/2018 -2.3 -8.2 -4.4 0.0 89.1
1/25/2018 -4.3 -11.2 -6.8 0.0 92.8
1/24/2018 -3.9 -11.6 -8.5 0.0 88.2
1/23/2018 -4.1 -6.9 -5.6 0.0 86.3
1/22/2018 -4.2 -7.4 -5.9 0.0 84.1
1/21/2018 -5.0 -7.1 -6.4 0.0 87.7
1/20/2018 6.5 -8.5 -2.3 0.0 82.8
1/19/2018 6.9 -3.0 2.8 0.0 74.1
1/18/2018 1.0 -6.7 -4.1 0.0 78.8
1/17/2018 5.9 -11.7 -1.9 0.0 61.9
1/16/2018 -10.1 -25.7 -16.9 0.0 61.2
1/15/2018 -20.7 -26.7 -24.4 0.0 71.3
1/14/2018 -13.5 -23.6 -17.5 0.0 80.3
1/13/2018 -16.9 -26.8 -22.4 0.0 67.5
1/12/2018 -16.9 -27.0 -22.9 0.0 64.9
1/11/2018 -19.9 -26.6 -23.1 0.0 74.8
1/10/2018 -2.1 -19.7 -11.3 0.0 83.5
1/9/2018 0.1 -11.9 -5.5 0.0 85.7
1/8/2018 -2.7 -11.2 -7.2 0.0 72.7
1/7/2018 3.1 -9.8 -3.2 0.0 79.3
1/6/2018 -9.3 -22.2 -14.4 0.0 79.4
1/5/2018 -18.7 -27.9 -23.9 0.0 74.6
1/4/2018 -19.9 -26.6 -22.8 0.0 74.3
1/3/2018 -16.9 -23.9 -20.7 0.0 72.4
1/2/2018 -11.9 -21.5 -17.0 0.0 71.0
1/1/2018 -13.8 -25.7 -20.8 0.0 62.0